sensor_id;sensor_type;location;lat;lon;timestamp;P1;durP1;ratioP1;P2;durP2;ratioP2
15126;SDS011;7664;52.008;4.748;2023-05-20T00:02:27;4.93;;;2.90;;
15126;SDS011;7664;52.008;4.748;2023-05-20T00:04:56;6.65;;;2.95;;
15126;SDS011;7664;52.008;4.748;2023-05-20T00:07:25;4.50;;;2.53;;
15126;SDS011;7664;52.008;4.748;2023-05-20T00:09:54;7.30;;;2.60;;
15126;SDS011;7664;52.008;4.748;2023-05-20T00:12:23;6.57;;;2.85;;
15126;SDS011;7664;52.008;4.748;2023-05-20T00:14:52;5.13;;;2.78;;
15126;SDS011;7664;52.008;4.748;2023-05-20T00:17:21;9.20;;;2.95;;
15126;SDS011;7664;52.008;4.748;2023-05-20T00:19:51;3.58;;;2.55;;
15126;SDS011;7664;52.008;4.748;2023-05-20T00:22:20;5.38;;;2.35;;
15126;SDS011;7664;52.008;4.748;2023-05-20T00:24:49;6.55;;;2.70;;
15126;SDS011;7664;52.008;4.748;2023-05-20T00:27:17;4.22;;;2.70;;
15126;SDS011;7664;52.008;4.748;2023-05-20T00:29:47;6.22;;;3.15;;
15126;SDS011;7664;52.008;4.748;2023-05-20T00:32:15;7.22;;;2.53;;
15126;SDS011;7664;52.008;4.748;2023-05-20T00:34:44;5.43;;;3.08;;
15126;SDS011;7664;52.008;4.748;2023-05-20T00:37:12;7.05;;;3.13;;
15126;SDS011;7664;52.008;4.748;2023-05-20T00:39:41;5.10;;;3.30;;
15126;SDS011;7664;52.008;4.748;2023-05-20T00:42:09;4.55;;;2.38;;
15126;SDS011;7664;52.008;4.748;2023-05-20T00:44:37;6.28;;;2.85;;
15126;SDS011;7664;52.008;4.748;2023-05-20T00:47:07;6.13;;;2.88;;
15126;SDS011;7664;52.008;4.748;2023-05-20T00:49:36;5.18;;;2.90;;
15126;SDS011;7664;52.008;4.748;2023-05-20T00:52:04;3.60;;;2.80;;
15126;SDS011;7664;52.008;4.748;2023-05-20T00:54:33;3.80;;;2.67;;
15126;SDS011;7664;52.008;4.748;2023-05-20T00:57:02;5.43;;;3.10;;
15126;SDS011;7664;52.008;4.748;2023-05-20T00:59:31;4.63;;;3.03;;
15126;SDS011;7664;52.008;4.748;2023-05-20T01:02:00;4.63;;;2.75;;
15126;SDS011;7664;52.008;4.748;2023-05-20T01:04:30;7.78;;;2.65;;
15126;SDS011;7664;52.008;4.748;2023-05-20T01:06:59;6.82;;;2.90;;
15126;SDS011;7664;52.008;4.748;2023-05-20T01:09:29;7.07;;;3.08;;
15126;SDS011;7664;52.008;4.748;2023-05-20T01:12:00;4.85;;;2.42;;
15126;SDS011;7664;52.008;4.748;2023-05-20T01:14:31;7.65;;;2.97;;
15126;SDS011;7664;52.008;4.748;2023-05-20T01:17:02;7.65;;;3.60;;
15126;SDS011;7664;52.008;4.748;2023-05-20T01:19:39;5.65;;;3.17;;
15126;SDS011;7664;52.008;4.748;2023-05-20T01:22:09;5.43;;;3.10;;
15126;SDS011;7664;52.008;4.748;2023-05-20T01:24:41;6.40;;;3.17;;
15126;SDS011;7664;52.008;4.748;2023-05-20T01:27:09;4.75;;;2.65;;
15126;SDS011;7664;52.008;4.748;2023-05-20T01:29:40;5.07;;;2.88;;
15126;SDS011;7664;52.008;4.748;2023-05-20T01:32:10;4.43;;;3.00;;
15126;SDS011;7664;52.008;4.748;2023-05-20T01:34:38;5.20;;;3.25;;
15126;SDS011;7664;52.008;4.748;2023-05-20T01:37:08;6.75;;;3.30;;
15126;SDS011;7664;52.008;4.748;2023-05-20T01:39:38;6.35;;;2.80;;
15126;SDS011;7664;52.008;4.748;2023-05-20T01:42:09;5.65;;;2.85;;
15126;SDS011;7664;52.008;4.748;2023-05-20T01:44:37;6.45;;;3.55;;
15126;SDS011;7664;52.008;4.748;2023-05-20T01:47:06;7.97;;;3.33;;
15126;SDS011;7664;52.008;4.748;2023-05-20T01:49:34;6.40;;;3.47;;
15126;SDS011;7664;52.008;4.748;2023-05-20T01:52:03;7.38;;;2.95;;
15126;SDS011;7664;52.008;4.748;2023-05-20T01:54:32;6.75;;;3.05;;
15126;SDS011;7664;52.008;4.748;2023-05-20T01:57:00;5.32;;;2.80;;
15126;SDS011;7664;52.008;4.748;2023-05-20T01:59:30;6.50;;;2.88;;
15126;SDS011;7664;52.008;4.748;2023-05-20T02:01:59;7.88;;;3.53;;
15126;SDS011;7664;52.008;4.748;2023-05-20T02:04:27;5.18;;;3.08;;
15126;SDS011;7664;52.008;4.748;2023-05-20T02:06:56;4.55;;;3.45;;
15126;SDS011;7664;52.008;4.748;2023-05-20T02:09:25;6.35;;;3.20;;
15126;SDS011;7664;52.008;4.748;2023-05-20T02:11:53;4.60;;;3.28;;
15126;SDS011;7664;52.008;4.748;2023-05-20T02:14:22;11.38;;;4.28;;
15126;SDS011;7664;52.008;4.748;2023-05-20T02:16:52;7.10;;;3.97;;
15126;SDS011;7664;52.008;4.748;2023-05-20T02:19:20;5.70;;;2.85;;
15126;SDS011;7664;52.008;4.748;2023-05-20T02:21:49;10.35;;;3.95;;
15126;SDS011;7664;52.008;4.748;2023-05-20T02:24:18;8.13;;;3.70;;
15126;SDS011;7664;52.008;4.748;2023-05-20T02:26:46;5.25;;;3.25;;
15126;SDS011;7664;52.008;4.748;2023-05-20T02:29:16;6.57;;;4.20;;
15126;SDS011;7664;52.008;4.748;2023-05-20T02:31:48;8.57;;;3.85;;
15126;SDS011;7664;52.008;4.748;2023-05-20T02:34:18;8.27;;;3.63;;
15126;SDS011;7664;52.008;4.748;2023-05-20T02:36:46;6.97;;;4.18;;
15126;SDS011;7664;52.008;4.748;2023-05-20T02:39:15;5.85;;;3.50;;
15126;SDS011;7664;52.008;4.748;2023-05-20T02:41:43;4.95;;;3.22;;
15126;SDS011;7664;52.008;4.748;2023-05-20T02:44:12;5.85;;;4.00;;
15126;SDS011;7664;52.008;4.748;2023-05-20T02:46:40;8.93;;;5.07;;
15126;SDS011;7664;52.008;4.748;2023-05-20T02:49:09;11.20;;;4.75;;
15126;SDS011;7664;52.008;4.748;2023-05-20T02:51:40;7.93;;;3.90;;
15126;SDS011;7664;52.008;4.748;2023-05-20T02:54:08;6.78;;;3.47;;
15126;SDS011;7664;52.008;4.748;2023-05-20T02:56:36;8.70;;;4.50;;
15126;SDS011;7664;52.008;4.748;2023-05-20T02:59:05;9.15;;;4.25;;
15126;SDS011;7664;52.008;4.748;2023-05-20T03:01:33;5.05;;;3.42;;
15126;SDS011;7664;52.008;4.748;2023-05-20T03:04:02;8.30;;;4.00;;
15126;SDS011;7664;52.008;4.748;2023-05-20T03:06:30;7.80;;;4.32;;
15126;SDS011;7664;52.008;4.748;2023-05-20T03:09:00;7.35;;;4.07;;
15126;SDS011;7664;52.008;4.748;2023-05-20T03:11:28;6.70;;;4.65;;
15126;SDS011;7664;52.008;4.748;2023-05-20T03:13:57;7.20;;;4.05;;
15126;SDS011;7664;52.008;4.748;2023-05-20T03:16:26;13.25;;;3.70;;
15126;SDS011;7664;52.008;4.748;2023-05-20T03:18:56;8.70;;;4.05;;
15126;SDS011;7664;52.008;4.748;2023-05-20T03:21:25;6.97;;;3.78;;
15126;SDS011;7664;52.008;4.748;2023-05-20T03:23:55;5.53;;;3.70;;
15126;SDS011;7664;52.008;4.748;2023-05-20T03:26:25;8.70;;;3.67;;
15126;SDS011;7664;52.008;4.748;2023-05-20T03:28:54;9.27;;;3.78;;
15126;SDS011;7664;52.008;4.748;2023-05-20T03:31:23;6.13;;;3.80;;
15126;SDS011;7664;52.008;4.748;2023-05-20T03:33:51;6.32;;;3.33;;
15126;SDS011;7664;52.008;4.748;2023-05-20T03:36:20;7.25;;;3.00;;
15126;SDS011;7664;52.008;4.748;2023-05-20T03:38:48;7.80;;;3.50;;
15126;SDS011;7664;52.008;4.748;2023-05-20T03:41:17;9.15;;;4.10;;
15126;SDS011;7664;52.008;4.748;2023-05-20T03:43:47;5.68;;;3.90;;
15126;SDS011;7664;52.008;4.748;2023-05-20T03:46:16;6.38;;;3.85;;
15126;SDS011;7664;52.008;4.748;2023-05-20T03:48:44;8.50;;;4.13;;
15126;SDS011;7664;52.008;4.748;2023-05-20T03:51:13;7.43;;;3.90;;
15126;SDS011;7664;52.008;4.748;2023-05-20T03:53:42;5.43;;;3.20;;
15126;SDS011;7664;52.008;4.748;2023-05-20T03:56:10;5.85;;;3.67;;
15126;SDS011;7664;52.008;4.748;2023-05-20T03:58:39;7.10;;;3.90;;
15126;SDS011;7664;52.008;4.748;2023-05-20T04:01:09;8.38;;;3.80;;
15126;SDS011;7664;52.008;4.748;2023-05-20T04:03:39;9.68;;;4.00;;
15126;SDS011;7664;52.008;4.748;2023-05-20T04:06:09;6.10;;;3.40;;
15126;SDS011;7664;52.008;4.748;2023-05-20T04:08:38;8.93;;;3.55;;
15126;SDS011;7664;52.008;4.748;2023-05-20T04:11:06;8.13;;;3.70;;
15126;SDS011;7664;52.008;4.748;2023-05-20T04:13:34;5.63;;;3.30;;
15126;SDS011;7664;52.008;4.748;2023-05-20T04:16:03;7.15;;;4.00;;
15126;SDS011;7664;52.008;4.748;2023-05-20T04:18:34;5.90;;;3.33;;
15126;SDS011;7664;52.008;4.748;2023-05-20T04:21:04;5.45;;;3.20;;
15126;SDS011;7664;52.008;4.748;2023-05-20T04:23:33;5.72;;;3.38;;
15126;SDS011;7664;52.008;4.748;2023-05-20T04:26:02;13.93;;;3.22;;
15126;SDS011;7664;52.008;4.748;2023-05-20T04:28:30;5.72;;;3.15;;
15126;SDS011;7664;52.008;4.748;2023-05-20T04:30:59;9.48;;;3.58;;
15126;SDS011;7664;52.008;4.748;2023-05-20T04:33:33;6.07;;;3.92;;
15126;SDS011;7664;52.008;4.748;2023-05-20T04:36:05;6.47;;;4.15;;
15126;SDS011;7664;52.008;4.748;2023-05-20T04:38:34;6.47;;;3.47;;
15126;SDS011;7664;52.008;4.748;2023-05-20T04:41:02;6.38;;;2.80;;
15126;SDS011;7664;52.008;4.748;2023-05-20T04:43:32;6.68;;;3.13;;
15126;SDS011;7664;52.008;4.748;2023-05-20T04:46:04;11.15;;;3.80;;
15126;SDS011;7664;52.008;4.748;2023-05-20T04:48:34;5.18;;;2.75;;
15126;SDS011;7664;52.008;4.748;2023-05-20T04:51:03;5.78;;;2.63;;
15126;SDS011;7664;52.008;4.748;2023-05-20T04:53:31;9.00;;;3.28;;
15126;SDS011;7664;52.008;4.748;2023-05-20T04:56:01;4.47;;;3.28;;
15126;SDS011;7664;52.008;4.748;2023-05-20T04:58:30;8.05;;;3.40;;
15126;SDS011;7664;52.008;4.748;2023-05-20T05:00:59;8.23;;;3.78;;
15126;SDS011;7664;52.008;4.748;2023-05-20T05:03:28;7.35;;;3.75;;
15126;SDS011;7664;52.008;4.748;2023-05-20T05:05:58;6.70;;;3.28;;
15126;SDS011;7664;52.008;4.748;2023-05-20T05:08:27;8.32;;;3.35;;
15126;SDS011;7664;52.008;4.748;2023-05-20T05:10:57;6.60;;;3.28;;
15126;SDS011;7664;52.008;4.748;2023-05-20T05:13:25;4.78;;;2.95;;
15126;SDS011;7664;52.008;4.748;2023-05-20T05:15:57;4.32;;;2.63;;
15126;SDS011;7664;52.008;4.748;2023-05-20T05:18:27;6.35;;;2.85;;
15126;SDS011;7664;52.008;4.748;2023-05-20T05:21:01;4.82;;;2.80;;
15126;SDS011;7664;52.008;4.748;2023-05-20T05:23:31;4.45;;;3.03;;
15126;SDS011;7664;52.008;4.748;2023-05-20T05:26:00;6.57;;;3.28;;
15126;SDS011;7664;52.008;4.748;2023-05-20T05:28:28;7.32;;;2.97;;
15126;SDS011;7664;52.008;4.748;2023-05-20T05:30:57;7.82;;;3.33;;
15126;SDS011;7664;52.008;4.748;2023-05-20T05:33:27;7.90;;;3.15;;
15126;SDS011;7664;52.008;4.748;2023-05-20T05:35:56;5.03;;;2.65;;
15126;SDS011;7664;52.008;4.748;2023-05-20T05:38:28;5.68;;;3.28;;
15126;SDS011;7664;52.008;4.748;2023-05-20T05:40:56;6.85;;;3.85;;
15126;SDS011;7664;52.008;4.748;2023-05-20T05:43:25;7.38;;;3.03;;
15126;SDS011;7664;52.008;4.748;2023-05-20T05:45:54;7.75;;;3.22;;
15126;SDS011;7664;52.008;4.748;2023-05-20T05:48:23;6.93;;;2.75;;
15126;SDS011;7664;52.008;4.748;2023-05-20T05:50:52;6.10;;;3.50;;
15126;SDS011;7664;52.008;4.748;2023-05-20T05:53:21;4.20;;;2.55;;
15126;SDS011;7664;52.008;4.748;2023-05-20T05:55:51;4.50;;;2.65;;
15126;SDS011;7664;52.008;4.748;2023-05-20T05:58:20;4.82;;;3.15;;
15126;SDS011;7664;52.008;4.748;2023-05-20T06:00:49;6.60;;;2.55;;
15126;SDS011;7664;52.008;4.748;2023-05-20T06:03:19;6.30;;;2.90;;
15126;SDS011;7664;52.008;4.748;2023-05-20T06:05:47;6.20;;;2.42;;
15126;SDS011;7664;52.008;4.748;2023-05-20T06:08:18;4.15;;;2.53;;
15126;SDS011;7664;52.008;4.748;2023-05-20T06:10:47;4.00;;;2.63;;
15126;SDS011;7664;52.008;4.748;2023-05-20T06:13:17;4.30;;;2.63;;
15126;SDS011;7664;52.008;4.748;2023-05-20T06:15:47;6.80;;;3.22;;
15126;SDS011;7664;52.008;4.748;2023-05-20T06:18:16;5.28;;;2.90;;
15126;SDS011;7664;52.008;4.748;2023-05-20T06:20:45;4.57;;;2.50;;
15126;SDS011;7664;52.008;4.748;2023-05-20T06:23:14;5.82;;;2.95;;
15126;SDS011;7664;52.008;4.748;2023-05-20T06:25:56;5.85;;;2.50;;
15126;SDS011;7664;52.008;4.748;2023-05-20T06:28:27;3.58;;;2.08;;
15126;SDS011;7664;52.008;4.748;2023-05-20T06:30:56;4.72;;;2.33;;
15126;SDS011;7664;52.008;4.748;2023-05-20T06:33:28;6.43;;;2.78;;
15126;SDS011;7664;52.008;4.748;2023-05-20T06:36:00;3.67;;;1.80;;
15126;SDS011;7664;52.008;4.748;2023-05-20T06:38:29;6.28;;;2.33;;
15126;SDS011;7664;52.008;4.748;2023-05-20T06:40:57;3.65;;;2.28;;
15126;SDS011;7664;52.008;4.748;2023-05-20T06:43:28;4.55;;;2.38;;
15126;SDS011;7664;52.008;4.748;2023-05-20T06:46:17;3.08;;;2.17;;
15126;SDS011;7664;52.008;4.748;2023-05-20T06:48:53;4.60;;;2.65;;
15126;SDS011;7664;52.008;4.748;2023-05-20T06:51:22;3.72;;;2.40;;
15126;SDS011;7664;52.008;4.748;2023-05-20T06:53:51;3.67;;;1.80;;
15126;SDS011;7664;52.008;4.748;2023-05-20T06:56:19;5.82;;;2.38;;
15126;SDS011;7664;52.008;4.748;2023-05-20T06:58:49;3.97;;;2.10;;
15126;SDS011;7664;52.008;4.748;2023-05-20T07:01:17;2.72;;;2.03;;
15126;SDS011;7664;52.008;4.748;2023-05-20T07:03:46;5.22;;;2.20;;
15126;SDS011;7664;52.008;4.748;2023-05-20T07:06:15;3.08;;;1.90;;
15126;SDS011;7664;52.008;4.748;2023-05-20T07:08:44;4.50;;;2.00;;
15126;SDS011;7664;52.008;4.748;2023-05-20T07:11:12;5.30;;;2.22;;
15126;SDS011;7664;52.008;4.748;2023-05-20T07:13:41;4.60;;;2.35;;
15126;SDS011;7664;52.008;4.748;2023-05-20T07:16:10;4.70;;;2.17;;
15126;SDS011;7664;52.008;4.748;2023-05-20T07:18:43;3.13;;;2.22;;
15126;SDS011;7664;52.008;4.748;2023-05-20T07:21:12;7.13;;;2.22;;
15126;SDS011;7664;52.008;4.748;2023-05-20T07:23:54;3.22;;;1.95;;
15126;SDS011;7664;52.008;4.748;2023-05-20T07:26:23;4.70;;;1.83;;
15126;SDS011;7664;52.008;4.748;2023-05-20T07:28:51;5.47;;;2.38;;
15126;SDS011;7664;52.008;4.748;2023-05-20T07:31:22;4.80;;;2.03;;
15126;SDS011;7664;52.008;4.748;2023-05-20T07:33:51;4.70;;;1.95;;
15126;SDS011;7664;52.008;4.748;2023-05-20T07:36:19;4.78;;;2.13;;
15126;SDS011;7664;52.008;4.748;2023-05-20T07:38:50;4.90;;;2.22;;
15126;SDS011;7664;52.008;4.748;2023-05-20T07:41:37;4.47;;;2.22;;
15126;SDS011;7664;52.008;4.748;2023-05-20T07:44:07;2.97;;;2.20;;
15126;SDS011;7664;52.008;4.748;2023-05-20T07:46:39;4.85;;;1.90;;
15126;SDS011;7664;52.008;4.748;2023-05-20T07:49:09;3.25;;;1.98;;
15126;SDS011;7664;52.008;4.748;2023-05-20T07:51:38;2.63;;;2.08;;
15126;SDS011;7664;52.008;4.748;2023-05-20T07:54:07;2.78;;;1.70;;
15126;SDS011;7664;52.008;4.748;2023-05-20T07:56:35;4.85;;;2.15;;
15126;SDS011;7664;52.008;4.748;2023-05-20T07:59:05;2.83;;;1.80;;
15126;SDS011;7664;52.008;4.748;2023-05-20T08:01:41;3.75;;;2.65;;
15126;SDS011;7664;52.008;4.748;2023-05-20T08:04:10;4.07;;;2.38;;
15126;SDS011;7664;52.008;4.748;2023-05-20T08:06:39;4.30;;;2.25;;
15126;SDS011;7664;52.008;4.748;2023-05-20T08:09:14;3.53;;;1.63;;
15126;SDS011;7664;52.008;4.748;2023-05-20T08:11:47;4.88;;;2.03;;
15126;SDS011;7664;52.008;4.748;2023-05-20T08:14:18;4.57;;;2.58;;
15126;SDS011;7664;52.008;4.748;2023-05-20T08:16:50;3.25;;;1.73;;
15126;SDS011;7664;52.008;4.748;2023-05-20T08:19:20;4.43;;;2.20;;
15126;SDS011;7664;52.008;4.748;2023-05-20T08:21:49;1.75;;;1.63;;
15126;SDS011;7664;52.008;4.748;2023-05-20T08:24:17;3.40;;;2.25;;
15126;SDS011;7664;52.008;4.748;2023-05-20T08:26:46;3.25;;;2.00;;
15126;SDS011;7664;52.008;4.748;2023-05-20T08:29:17;3.30;;;1.52;;
15126;SDS011;7664;52.008;4.748;2023-05-20T08:31:45;3.42;;;1.92;;
15126;SDS011;7664;52.008;4.748;2023-05-20T08:34:16;3.38;;;2.05;;
15126;SDS011;7664;52.008;4.748;2023-05-20T08:36:45;3.92;;;2.35;;
15126;SDS011;7664;52.008;4.748;2023-05-20T08:39:13;4.65;;;1.95;;
15126;SDS011;7664;52.008;4.748;2023-05-20T08:41:44;5.80;;;1.83;;
15126;SDS011;7664;52.008;4.748;2023-05-20T08:44:14;3.60;;;1.88;;
15126;SDS011;7664;52.008;4.748;2023-05-20T08:46:44;5.60;;;2.05;;
15126;SDS011;7664;52.008;4.748;2023-05-20T08:49:13;3.75;;;2.17;;
15126;SDS011;7664;52.008;4.748;2023-05-20T08:51:43;3.13;;;1.40;;
15126;SDS011;7664;52.008;4.748;2023-05-20T08:54:12;5.13;;;2.03;;
15126;SDS011;7664;52.008;4.748;2023-05-20T08:56:42;5.43;;;1.35;;
15126;SDS011;7664;52.008;4.748;2023-05-20T08:59:11;1.85;;;1.17;;
15126;SDS011;7664;52.008;4.748;2023-05-20T09:01:41;1.85;;;1.00;;
15126;SDS011;7664;52.008;4.748;2023-05-20T09:04:09;2.92;;;1.65;;
15126;SDS011;7664;52.008;4.748;2023-05-20T09:06:41;2.97;;;1.15;;
15126;SDS011;7664;52.008;4.748;2023-05-20T09:09:11;2.92;;;1.52;;
15126;SDS011;7664;52.008;4.748;2023-05-20T09:11:40;1.25;;;1.00;;
15126;SDS011;7664;52.008;4.748;2023-05-20T09:14:09;1.88;;;0.98;;
15126;SDS011;7664;52.008;4.748;2023-05-20T09:16:38;1.90;;;1.23;;
15126;SDS011;7664;52.008;4.748;2023-05-20T09:19:07;4.47;;;1.27;;
15126;SDS011;7664;52.008;4.748;2023-05-20T09:21:35;2.15;;;0.80;;
15126;SDS011;7664;52.008;4.748;2023-05-20T09:24:04;1.42;;;1.00;;
15126;SDS011;7664;52.008;4.748;2023-05-20T09:26:34;1.85;;;1.20;;
15126;SDS011;7664;52.008;4.748;2023-05-20T09:29:02;4.45;;;1.48;;
15126;SDS011;7664;52.008;4.748;2023-05-20T09:31:31;1.40;;;0.90;;
15126;SDS011;7664;52.008;4.748;2023-05-20T09:34:01;2.78;;;1.40;;
15126;SDS011;7664;52.008;4.748;2023-05-20T09:36:29;1.55;;;0.93;;
15126;SDS011;7664;52.008;4.748;2023-05-20T09:39:02;1.65;;;1.08;;
15126;SDS011;7664;52.008;4.748;2023-05-20T09:41:32;2.22;;;0.70;;
15126;SDS011;7664;52.008;4.748;2023-05-20T09:44:02;2.20;;;1.02;;
15126;SDS011;7664;52.008;4.748;2023-05-20T09:46:32;3.50;;;1.33;;
15126;SDS011;7664;52.008;4.748;2023-05-20T09:49:00;3.70;;;1.00;;
15126;SDS011;7664;52.008;4.748;2023-05-20T09:51:32;2.38;;;1.20;;
15126;SDS011;7664;52.008;4.748;2023-05-20T09:54:00;2.13;;;0.98;;
15126;SDS011;7664;52.008;4.748;2023-05-20T09:56:30;2.40;;;1.00;;
15126;SDS011;7664;52.008;4.748;2023-05-20T09:58:59;1.55;;;0.80;;
15126;SDS011;7664;52.008;4.748;2023-05-20T10:01:29;4.15;;;1.15;;
15126;SDS011;7664;52.008;4.748;2023-05-20T10:03:58;2.28;;;0.80;;
15126;SDS011;7664;52.008;4.748;2023-05-20T10:06:31;2.88;;;1.02;;
15126;SDS011;7664;52.008;4.748;2023-05-20T10:11:56;1.38;;;0.95;;
15126;SDS011;7664;52.008;4.748;2023-05-20T10:14:30;4.80;;;1.58;;
15126;SDS011;7664;52.008;4.748;2023-05-20T10:17:04;2.40;;;1.13;;
15126;SDS011;7664;52.008;4.748;2023-05-20T10:19:35;2.50;;;1.15;;
15126;SDS011;7664;52.008;4.748;2023-05-20T10:22:04;1.63;;;1.10;;
15126;SDS011;7664;52.008;4.748;2023-05-20T10:24:34;2.33;;;0.90;;
15126;SDS011;7664;52.008;4.748;2023-05-20T10:27:04;2.58;;;0.90;;
15126;SDS011;7664;52.008;4.748;2023-05-20T10:29:41;1.92;;;1.02;;
15126;SDS011;7664;52.008;4.748;2023-05-20T10:32:22;2.13;;;0.85;;
15126;SDS011;7664;52.008;4.748;2023-05-20T10:34:50;2.47;;;0.90;;
15126;SDS011;7664;52.008;4.748;2023-05-20T10:37:24;1.23;;;0.70;;
15126;SDS011;7664;52.008;4.748;2023-05-20T10:40:02;2.67;;;1.27;;
15126;SDS011;7664;52.008;4.748;2023-05-20T10:42:30;2.65;;;0.90;;
15126;SDS011;7664;52.008;4.748;2023-05-20T10:44:59;2.72;;;0.80;;
15126;SDS011;7664;52.008;4.748;2023-05-20T10:47:28;1.10;;;0.90;;
15126;SDS011;7664;52.008;4.748;2023-05-20T10:49:57;1.77;;;0.93;;
15126;SDS011;7664;52.008;4.748;2023-05-20T10:52:31;4.05;;;1.10;;
15126;SDS011;7664;52.008;4.748;2023-05-20T10:55:00;4.68;;;1.23;;
15126;SDS011;7664;52.008;4.748;2023-05-20T10:57:29;2.53;;;1.15;;
15126;SDS011;7664;52.008;4.748;2023-05-20T10:59:57;2.63;;;1.08;;
15126;SDS011;7664;52.008;4.748;2023-05-20T11:02:26;1.25;;;1.05;;
15126;SDS011;7664;52.008;4.748;2023-05-20T11:04:56;4.65;;;1.58;;
15126;SDS011;7664;52.008;4.748;2023-05-20T11:07:25;2.45;;;1.20;;
15126;SDS011;7664;52.008;4.748;2023-05-20T11:09:54;2.72;;;1.17;;
15126;SDS011;7664;52.008;4.748;2023-05-20T11:12:23;1.75;;;1.15;;
15126;SDS011;7664;52.008;4.748;2023-05-20T11:14:53;1.42;;;0.95;;
15126;SDS011;7664;52.008;4.748;2023-05-20T11:17:21;1.70;;;1.25;;
15126;SDS011;7664;52.008;4.748;2023-05-20T11:19:49;1.35;;;1.08;;
15126;SDS011;7664;52.008;4.748;2023-05-20T11:22:19;3.47;;;1.65;;
15126;SDS011;7664;52.008;4.748;2023-05-20T11:24:48;6.68;;;1.30;;
15126;SDS011;7664;52.008;4.748;2023-05-20T11:27:17;1.70;;;1.35;;
15126;SDS011;7664;52.008;4.748;2023-05-20T11:29:47;0.93;;;0.75;;
15126;SDS011;7664;52.008;4.748;2023-05-20T11:32:18;2.75;;;1.23;;
15126;SDS011;7664;52.008;4.748;2023-05-20T11:34:49;3.15;;;1.20;;
15126;SDS011;7664;52.008;4.748;2023-05-20T11:37:20;1.48;;;0.88;;
15126;SDS011;7664;52.008;4.748;2023-05-20T11:40:01;2.78;;;1.00;;
15126;SDS011;7664;52.008;4.748;2023-05-20T11:42:33;5.30;;;1.00;;
15126;SDS011;7664;52.008;4.748;2023-05-20T11:45:02;1.85;;;1.10;;
15126;SDS011;7664;52.008;4.748;2023-05-20T11:47:30;2.28;;;1.40;;
15126;SDS011;7664;52.008;4.748;2023-05-20T11:49:59;1.77;;;1.20;;
15126;SDS011;7664;52.008;4.748;2023-05-20T11:52:30;2.05;;;1.10;;
15126;SDS011;7664;52.008;4.748;2023-05-20T11:55:00;4.47;;;1.23;;
15126;SDS011;7664;52.008;4.748;2023-05-20T11:57:29;1.30;;;1.08;;
15126;SDS011;7664;52.008;4.748;2023-05-20T11:59:58;1.48;;;0.90;;
15126;SDS011;7664;52.008;4.748;2023-05-20T12:02:26;2.53;;;1.02;;
15126;SDS011;7664;52.008;4.748;2023-05-20T12:04:55;1.15;;;0.90;;
15126;SDS011;7664;52.008;4.748;2023-05-20T12:07:24;1.23;;;0.93;;
15126;SDS011;7664;52.008;4.748;2023-05-20T12:09:55;2.35;;;1.50;;
15126;SDS011;7664;52.008;4.748;2023-05-20T12:12:24;1.42;;;0.90;;
15126;SDS011;7664;52.008;4.748;2023-05-20T12:14:52;2.30;;;1.25;;
15126;SDS011;7664;52.008;4.748;2023-05-20T12:17:20;2.38;;;1.02;;
15126;SDS011;7664;52.008;4.748;2023-05-20T12:19:49;3.05;;;2.05;;
15126;SDS011;7664;52.008;4.748;2023-05-20T12:22:17;2.03;;;1.10;;
15126;SDS011;7664;52.008;4.748;2023-05-20T12:24:46;3.53;;;1.35;;
15126;SDS011;7664;52.008;4.748;2023-05-20T12:27:16;1.33;;;0.90;;
15126;SDS011;7664;52.008;4.748;2023-05-20T12:29:44;4.57;;;1.42;;
15126;SDS011;7664;52.008;4.748;2023-05-20T12:32:13;1.98;;;1.33;;
15126;SDS011;7664;52.008;4.748;2023-05-20T12:34:41;1.48;;;1.20;;
15126;SDS011;7664;52.008;4.748;2023-05-20T12:37:10;4.20;;;1.05;;
15126;SDS011;7664;52.008;4.748;2023-05-20T12:39:38;1.30;;;1.08;;
15126;SDS011;7664;52.008;4.748;2023-05-20T12:42:07;1.77;;;1.10;;
15126;SDS011;7664;52.008;4.748;2023-05-20T12:44:37;1.90;;;0.80;;
15126;SDS011;7664;52.008;4.748;2023-05-20T12:47:05;2.58;;;1.17;;
15126;SDS011;7664;52.008;4.748;2023-05-20T12:49:34;7.30;;;1.30;;
15126;SDS011;7664;52.008;4.748;2023-05-20T12:52:03;1.42;;;1.00;;
15126;SDS011;7664;52.008;4.748;2023-05-20T12:54:59;1.33;;;0.90;;
15126;SDS011;7664;52.008;4.748;2023-05-20T12:57:28;3.17;;;1.48;;
15126;SDS011;7664;52.008;4.748;2023-05-20T12:59:58;1.95;;;1.25;;
15126;SDS011;7664;52.008;4.748;2023-05-20T13:02:26;1.70;;;1.17;;
15126;SDS011;7664;52.008;4.748;2023-05-20T13:04:55;1.52;;;0.80;;
15126;SDS011;7664;52.008;4.748;2023-05-20T13:07:24;1.60;;;0.77;;
15126;SDS011;7664;52.008;4.748;2023-05-20T13:09:52;0.85;;;0.85;;
15126;SDS011;7664;52.008;4.748;2023-05-20T13:12:21;1.83;;;0.80;;
15126;SDS011;7664;52.008;4.748;2023-05-20T13:14:49;1.55;;;1.30;;
15126;SDS011;7664;52.008;4.748;2023-05-20T13:17:19;4.47;;;0.95;;
15126;SDS011;7664;52.008;4.748;2023-05-20T13:19:47;1.40;;;0.90;;
15126;SDS011;7664;52.008;4.748;2023-05-20T13:22:16;1.40;;;0.70;;
15126;SDS011;7664;52.008;4.748;2023-05-20T13:24:45;2.22;;;1.10;;
15126;SDS011;7664;52.008;4.748;2023-05-20T13:27:13;1.65;;;0.98;;
15126;SDS011;7664;52.008;4.748;2023-05-20T13:29:41;1.92;;;1.38;;
15126;SDS011;7664;52.008;4.748;2023-05-20T13:32:10;4.38;;;1.13;;
15126;SDS011;7664;52.008;4.748;2023-05-20T13:34:39;1.58;;;0.95;;
15126;SDS011;7664;52.008;4.748;2023-05-20T13:37:08;2.03;;;0.80;;
15126;SDS011;7664;52.008;4.748;2023-05-20T13:39:36;1.48;;;0.85;;
15126;SDS011;7664;52.008;4.748;2023-05-20T13:42:05;1.88;;;1.10;;
15126;SDS011;7664;52.008;4.748;2023-05-20T13:44:33;2.85;;;1.05;;
15126;SDS011;7664;52.008;4.748;2023-05-20T13:47:01;1.02;;;0.80;;
15126;SDS011;7664;52.008;4.748;2023-05-20T13:49:30;2.17;;;1.20;;
15126;SDS011;7664;52.008;4.748;2023-05-20T13:52:00;0.82;;;0.80;;
15126;SDS011;7664;52.008;4.748;2023-05-20T13:54:28;2.03;;;1.17;;
15126;SDS011;7664;52.008;4.748;2023-05-20T13:56:57;1.75;;;1.15;;
15126;SDS011;7664;52.008;4.748;2023-05-20T13:59:26;1.25;;;1.10;;
15126;SDS011;7664;52.008;4.748;2023-05-20T14:01:55;1.67;;;1.05;;
15126;SDS011;7664;52.008;4.748;2023-05-20T14:04:24;3.00;;;1.10;;
15126;SDS011;7664;52.008;4.748;2023-05-20T14:06:52;2.17;;;1.05;;
15126;SDS011;7664;52.008;4.748;2023-05-20T14:09:22;1.83;;;1.35;;
15126;SDS011;7664;52.008;4.748;2023-05-20T14:11:50;3.65;;;1.30;;
15126;SDS011;7664;52.008;4.748;2023-05-20T14:14:19;1.13;;;0.80;;
15126;SDS011;7664;52.008;4.748;2023-05-20T14:16:47;1.55;;;0.88;;
15126;SDS011;7664;52.008;4.748;2023-05-20T14:19:15;1.20;;;1.10;;
15126;SDS011;7664;52.008;4.748;2023-05-20T14:21:46;2.30;;;0.85;;
15126;SDS011;7664;52.008;4.748;2023-05-20T14:24:15;1.88;;;1.40;;
15126;SDS011;7664;52.008;4.748;2023-05-20T14:26:44;1.63;;;1.20;;
15126;SDS011;7664;52.008;4.748;2023-05-20T14:29:13;1.08;;;0.70;;
15126;SDS011;7664;52.008;4.748;2023-05-20T14:31:41;2.80;;;1.58;;
15126;SDS011;7664;52.008;4.748;2023-05-20T14:34:10;1.52;;;0.80;;
15126;SDS011;7664;52.008;4.748;2023-05-20T14:36:38;5.05;;;0.98;;
15126;SDS011;7664;52.008;4.748;2023-05-20T14:39:06;3.00;;;1.13;;
15126;SDS011;7664;52.008;4.748;2023-05-20T14:41:35;1.38;;;0.90;;
15126;SDS011;7664;52.008;4.748;2023-05-20T14:44:05;3.17;;;1.25;;
15126;SDS011;7664;52.008;4.748;2023-05-20T14:46:33;4.10;;;0.80;;
15126;SDS011;7664;52.008;4.748;2023-05-20T14:49:02;2.67;;;0.90;;
15126;SDS011;7664;52.008;4.748;2023-05-20T14:51:30;3.60;;;1.10;;
15126;SDS011;7664;52.008;4.748;2023-05-20T14:53:58;4.75;;;0.88;;
15126;SDS011;7664;52.008;4.748;2023-05-20T14:56:27;0.88;;;0.75;;
15126;SDS011;7664;52.008;4.748;2023-05-20T14:58:56;1.70;;;1.20;;
15126;SDS011;7664;52.008;4.748;2023-05-20T15:01:26;1.25;;;0.90;;
15126;SDS011;7664;52.008;4.748;2023-05-20T15:03:55;1.25;;;0.80;;
15126;SDS011;7664;52.008;4.748;2023-05-20T15:06:24;2.50;;;0.93;;
15126;SDS011;7664;52.008;4.748;2023-05-20T15:08:52;2.78;;;1.10;;
15126;SDS011;7664;52.008;4.748;2023-05-20T15:11:20;1.55;;;0.90;;
15126;SDS011;7664;52.008;4.748;2023-05-20T15:13:49;1.05;;;0.88;;
15126;SDS011;7664;52.008;4.748;2023-05-20T15:16:17;1.92;;;1.23;;
15126;SDS011;7664;52.008;4.748;2023-05-20T15:18:50;3.78;;;1.55;;